Time;durP1;ratioP1;P1;durP2;ratioP2;P2;SDS_P1;SDS_P2;PMS_P1;PMS_P2;Temp;Humidity;BMP_temperature;BMP_pressure;BME280_temperature;BME280_humidity;BME280_pressure;Samples;Min_cycle;Max_cycle;Signal;HPM_P1;HPM_P2
2020/12/31 00:01:31;;;;;;;12.85;6.45;;;2.20;99.90;;;;;;5057686;28;20017;-66
2020/12/31 00:03:58;;;;;;;14.45;6.05;;;2.20;99.90;;;;;;5057666;28;20424;-66
2020/12/31 00:06:26;;;;;;;12.93;6.95;;;2.20;99.90;;;;;;5058382;28;20077;-66
2020/12/31 00:08:53;;;;;;;15.05;6.95;;;2.30;99.90;;;;;;5057511;28;20348;-66
2020/12/31 00:11:21;;;;;;;14.23;6.85;;;2.30;99.90;;;;;;5058070;28;20074;-66
2020/12/31 00:13:49;;;;;;;11.07;6.80;;;2.30;99.90;;;;;;5057526;28;20416;-66
2020/12/31 00:16:16;;;;;;;13.18;7.38;;;2.40;99.90;;;;;;5039719;28;20021;-66
2020/12/31 00:18:44;;;;;;;13.80;7.45;;;2.40;99.90;;;;;;5057467;28;20021;-66
2020/12/31 00:21:12;;;;;;;13.00;7.60;;;2.40;99.90;;;;;;5057296;28;20029;-66
2020/12/31 00:23:40;;;;;;;13.05;7.28;;;2.40;99.90;;;;;;5057333;28;20100;-66
2020/12/31 00:26:07;;;;;;;15.93;7.82;;;2.40;99.90;;;;;;5056214;28;20437;-66
2020/12/31 00:28:35;;;;;;;19.38;8.40;;;2.40;99.90;;;;;;5057370;28;20340;-66
2020/12/31 00:31:03;;;;;;;10.75;6.80;;;2.40;99.90;;;;;;5057488;28;20310;-66
2020/12/31 00:33:32;;;;;;;17.98;7.75;;;2.40;99.90;;;;;;5057123;28;20472;-66
2020/12/31 00:35:59;;;;;;;16.98;7.72;;;2.40;99.90;;;;;;5057413;28;20025;-66
2020/12/31 00:38:28;;;;;;;15.10;7.15;;;2.40;99.90;;;;;;5057328;28;20029;-66
2020/12/31 00:40:56;;;;;;;17.63;7.47;;;2.30;99.90;;;;;;5057786;28;20063;-66
2020/12/31 00:43:24;;;;;;;18.13;6.05;;;2.20;99.90;;;;;;5056713;28;20112;-66
2020/12/31 00:45:52;;;;;;;20.40;7.63;;;2.30;99.90;;;;;;5057158;28;20108;-66
2020/12/31 00:48:20;;;;;;;31.23;10.88;;;2.20;99.90;;;;;;5056751;28;20108;-66
2020/12/31 00:50:48;;;;;;;29.48;10.00;;;2.20;99.90;;;;;;5057016;28;20356;-66
2020/12/31 00:53:17;;;;;;;46.88;13.05;;;2.30;99.90;;;;;;5056803;28;20103;-66
2020/12/31 00:55:44;;;;;;;26.00;9.25;;;2.30;99.90;;;;;;5057364;28;20305;-66
2020/12/31 00:58:12;;;;;;;31.30;8.48;;;2.30;99.90;;;;;;5039018;28;20052;-66
2020/12/31 01:00:44;;;;;;;21.48;8.55;;;2.30;99.90;;;;;;5057135;28;20104;-66
2020/12/31 01:03:12;;;;;;;19.45;6.13;;;2.40;99.90;;;;;;5056657;28;20028;-66
2020/12/31 01:05:40;;;;;;;23.90;10.00;;;2.30;99.90;;;;;;5056569;28;20420;-66
2020/12/31 01:08:07;;;;;;;11.95;6.05;;;2.30;99.90;;;;;;5058958;28;20059;-66
2020/12/31 01:10:35;;;;;;;11.55;5.95;;;2.30;99.90;;;;;;5077185;28;20024;-66
2020/12/31 01:13:03;;;;;;;12.13;6.50;;;2.30;99.90;;;;;;5076777;28;20313;-66
2020/12/31 01:15:31;;;;;;;11.07;5.82;;;2.20;99.90;;;;;;5076503;28;20321;-66
2020/12/31 01:18:00;;;;;;;17.27;6.80;;;2.10;99.90;;;;;;5076749;28;20550;-66
2020/12/31 01:20:27;;;;;;;12.43;6.25;;;2.10;99.90;;;;;;5076515;28;20104;-66
2020/12/31 01:22:55;;;;;;;18.58;8.02;;;2.00;99.90;;;;;;5076712;28;20040;-66
2020/12/31 01:25:23;;;;;;;15.25;7.28;;;2.00;99.90;;;;;;5076494;28;20024;-66
2020/12/31 01:27:50;;;;;;;15.95;7.63;;;1.90;99.90;;;;;;5076433;28;20016;-66
2020/12/31 01:30:18;;;;;;;17.05;6.78;;;1.90;99.90;;;;;;5076876;28;20073;-66
2020/12/31 01:32:46;;;;;;;17.30;7.38;;;1.80;99.90;;;;;;5075221;28;20031;-66
2020/12/31 01:35:14;;;;;;;13.05;6.10;;;1.80;99.90;;;;;;5076370;28;20096;-66
2020/12/31 01:37:41;;;;;;;15.23;6.82;;;1.70;99.90;;;;;;5079555;28;20021;-66
2020/12/31 01:40:09;;;;;;;15.77;6.90;;;1.70;99.90;;;;;;5079363;28;20107;-66
2020/12/31 01:42:40;;;;;;;11.23;6.50;;;1.70;99.90;;;;;;5080419;28;20033;-66
2020/12/31 01:45:08;;;;;;;11.73;7.32;;;1.60;99.90;;;;;;5079193;28;20032;-66
2020/12/31 01:47:36;;;;;;;14.65;6.97;;;1.60;99.90;;;;;;5080864;28;20025;-66
2020/12/31 01:50:05;;;;;;;13.75;7.38;;;1.60;99.90;;;;;;5080199;28;20078;-66
2020/12/31 01:52:33;;;;;;;10.13;4.82;;;1.60;99.90;;;;;;5080404;28;20024;-66
2020/12/31 01:55:06;;;;;;;13.88;5.90;;;1.60;99.90;;;;;;5079103;28;20051;-66
2020/12/31 01:57:34;;;;;;;10.82;6.43;;;1.60;99.90;;;;;;5079206;28;20096;-66
2020/12/31 02:00:02;;;;;;;12.07;6.15;;;1.60;99.90;;;;;;5080665;28;20031;-66
2020/12/31 02:02:29;;;;;;;10.13;5.93;;;1.60;99.90;;;;;;5080158;28;20421;-66
2020/12/31 02:04:59;;;;;;;8.25;4.85;;;1.60;99.90;;;;;;5080007;28;20356;-66
2020/12/31 02:07:27;;;;;;;19.13;6.30;;;1.70;99.90;;;;;;5074316;28;20052;-66
2020/12/31 02:09:54;;;;;;;9.88;5.10;;;1.70;99.90;;;;;;5059833;28;20376;-66
2020/12/31 02:12:22;;;;;;;9.35;5.03;;;1.70;99.90;;;;;;5043056;28;20096;-66
2020/12/31 02:14:51;;;;;;;11.05;5.82;;;1.80;99.90;;;;;;5059778;28;20100;-66
2020/12/31 02:17:19;;;;;;;7.38;4.00;;;1.80;99.90;;;;;;5059682;28;20066;-66
2020/12/31 02:19:47;;;;;;;10.65;5.28;;;1.90;99.90;;;;;;5060279;28;20039;-66
2020/12/31 02:22:15;;;;;;;10.73;5.15;;;1.90;99.90;;;;;;5059743;28;20071;-66
2020/12/31 02:24:42;;;;;;;8.13;4.18;;;1.90;99.90;;;;;;5059604;28;20060;-66
2020/12/31 02:27:10;;;;;;;20.38;6.43;;;2.00;99.90;;;;;;5060104;28;20021;-66
2020/12/31 02:29:37;;;;;;;7.82;4.50;;;2.00;99.90;;;;;;5059429;28;20163;-66
2020/12/31 02:32:05;;;;;;;9.73;5.55;;;2.00;99.90;;;;;;5059540;28;20017;-66
2020/12/31 02:34:33;;;;;;;8.70;4.07;;;2.10;99.90;;;;;;5059349;28;20078;-66
2020/12/31 02:37:01;;;;;;;9.48;5.00;;;2.10;99.90;;;;;;5059443;28;20017;-66
2020/12/31 02:39:29;;;;;;;7.72;4.93;;;2.20;99.90;;;;;;5041850;28;20120;-66
2020/12/31 02:41:56;;;;;;;8.60;4.72;;;2.20;99.90;;;;;;5059482;28;20029;-66
2020/12/31 02:44:24;;;;;;;6.47;3.53;;;2.10;99.90;;;;;;5059198;28;20047;-66
2020/12/31 02:46:51;;;;;;;7.47;3.95;;;2.20;99.90;;;;;;5041407;28;20029;-66
2020/12/31 02:49:19;;;;;;;10.82;4.20;;;2.20;99.90;;;;;;5057914;28;20025;-66
2020/12/31 02:51:49;;;;;;;8.15;4.03;;;2.20;99.90;;;;;;5059116;28;20025;-66
2020/12/31 02:54:16;;;;;;;11.82;4.32;;;2.20;99.90;;;;;;5059292;28;20027;-66
2020/12/31 02:56:44;;;;;;;10.25;4.18;;;2.20;99.90;;;;;;5058996;28;20352;-66
2020/12/31 02:59:12;;;;;;;7.32;3.83;;;2.30;99.90;;;;;;5058940;28;20032;-66
2020/12/31 03:01:40;;;;;;;12.90;4.20;;;2.30;99.90;;;;;;5059058;28;20079;-66
2020/12/31 03:04:07;;;;;;;10.13;4.30;;;2.30;99.90;;;;;;5058830;28;20029;-66
2020/12/31 03:06:36;;;;;;;8.05;3.75;;;2.30;99.90;;;;;;5059238;28;20029;-66
2020/12/31 03:09:03;;;;;;;7.45;4.13;;;2.30;99.90;;;;;;5058688;28;20045;-66
2020/12/31 03:11:31;;;;;;;7.45;4.40;;;2.30;99.90;;;;;;5041829;28;20055;-66
2020/12/31 03:13:59;;;;;;;10.45;4.25;;;2.30;99.90;;;;;;5058650;28;20027;-66
2020/12/31 03:16:26;;;;;;;8.75;4.43;;;2.30;99.90;;;;;;5041370;28;20028;-66
2020/12/31 03:18:54;;;;;;;10.32;3.83;;;2.30;99.90;;;;;;5059135;28;20030;-66
2020/12/31 03:21:22;;;;;;;8.07;4.38;;;2.30;99.90;;;;;;5040809;28;20028;-66
2020/12/31 03:23:50;;;;;;;5.40;3.28;;;2.30;99.90;;;;;;5058773;28;20024;-66
2020/12/31 03:26:17;;;;;;;6.45;3.08;;;2.30;99.90;;;;;;5058570;28;20364;-66
2020/12/31 03:28:45;;;;;;;4.40;2.42;;;2.30;99.90;;;;;;5040597;28;20029;-66
2020/12/31 03:31:12;;;;;;;6.20;3.17;;;2.30;99.90;;;;;;5058328;28;20485;-66
2020/12/31 03:33:40;;;;;;;4.97;2.75;;;2.30;99.90;;;;;;5058272;28;20024;-66
2020/12/31 03:36:07;;;;;;;7.32;3.70;;;2.30;99.90;;;;;;5058382;28;20020;-66
2020/12/31 03:38:35;;;;;;;14.32;5.75;;;2.30;99.90;;;;;;5058710;28;20024;-66
2020/12/31 03:41:03;;;;;;;6.72;4.15;;;2.40;99.90;;;;;;5058702;28;20032;-66
2020/12/31 03:43:30;;;;;;;7.65;3.50;;;2.40;99.90;;;;;;5058113;28;20025;-66
2020/12/31 03:45:58;;;;;;;6.03;2.60;;;2.40;99.90;;;;;;5040476;28;20032;-66
2020/12/31 03:48:25;;;;;;;11.23;3.47;;;2.40;99.90;;;;;;5058221;28;20309;-66
2020/12/31 03:50:53;;;;;;;7.85;4.10;;;2.40;99.90;;;;;;5040318;28;20025;-66
2020/12/31 03:53:21;;;;;;;6.15;3.38;;;2.40;99.90;;;;;;5040245;28;20028;-66
2020/12/31 03:55:49;;;;;;;7.78;3.33;;;2.40;99.90;;;;;;5058027;28;20100;-66
2020/12/31 03:58:17;;;;;;;7.47;3.92;;;2.30;99.90;;;;;;5058407;28;20107;-66
2020/12/31 04:00:44;;;;;;;7.47;3.55;;;2.30;99.90;;;;;;5057541;28;20017;-66
2020/12/31 04:03:12;;;;;;;8.02;3.45;;;2.20;99.90;;;;;;5057692;28;20028;-66
2020/12/31 04:05:39;;;;;;;6.75;3.63;;;2.20;99.90;;;;;;5057878;28;20451;-66
2020/12/31 04:08:07;;;;;;;9.25;4.20;;;2.20;99.90;;;;;;5059155;28;20053;-66
2020/12/31 04:10:35;;;;;;;7.40;3.60;;;2.10;99.90;;;;;;5078202;28;20027;-66
2020/12/31 04:13:03;;;;;;;10.18;4.70;;;2.10;99.90;;;;;;5077857;28;20074;-66
2020/12/31 04:15:30;;;;;;;14.43;4.10;;;2.00;99.90;;;;;;5077633;28;20031;-66
2020/12/31 04:17:58;;;;;;;7.10;3.92;;;2.00;99.90;;;;;;5077442;28;20025;-66
2020/12/31 04:20:25;;;;;;;5.72;3.58;;;2.00;99.90;;;;;;5077454;28;20035;-66
2020/12/31 04:22:53;;;;;;;7.43;3.45;;;2.00;99.90;;;;;;5077401;28;20024;-66
2020/12/31 04:25:21;;;;;;;11.20;3.90;;;2.00;99.90;;;;;;5077502;28;20123;-66
2020/12/31 04:27:49;;;;;;;10.05;3.85;;;2.00;99.90;;;;;;5076174;28;20021;-66
2020/12/31 04:30:17;;;;;;;7.05;3.38;;;2.00;99.90;;;;;;5077733;28;20031;-66
2020/12/31 04:32:45;;;;;;;7.00;3.78;;;2.00;99.90;;;;;;5077636;28;20019;-66
2020/12/31 04:35:13;;;;;;;9.90;4.05;;;2.00;99.90;;;;;;5075984;28;20048;-66
2020/12/31 04:37:40;;;;;;;9.18;4.47;;;2.00;99.90;;;;;;5077065;28;20017;-66
2020/12/31 04:40:10;;;;;;;10.02;3.55;;;2.00;99.90;;;;;;5077564;28;20024;-66
2020/12/31 04:42:37;;;;;;;7.53;4.15;;;2.00;99.90;;;;;;5077014;28;20036;-66
2020/12/31 04:45:06;;;;;;;10.13;3.70;;;2.00;99.90;;;;;;5077536;28;20048;-66
2020/12/31 04:47:46;;;;;;;8.55;3.97;;;2.00;99.90;;;;;;5076876;28;20028;-66
2020/12/31 04:50:21;;;;;;;10.50;4.18;;;2.00;99.90;;;;;;5076787;28;20032;-66
2020/12/31 04:52:49;;;;;;;9.38;4.43;;;2.00;99.90;;;;;;5075735;28;20021;-66
2020/12/31 04:55:22;;;;;;;9.02;4.53;;;2.00;99.90;;;;;;5076868;28;20138;-66
2020/12/31 04:57:51;;;;;;;7.93;4.30;;;2.00;99.90;;;;;;5077328;28;20019;-66
2020/12/31 05:00:18;;;;;;;8.55;4.75;;;2.00;99.90;;;;;;5077456;28;20025;-66
2020/12/31 05:02:55;;;;;;;9.95;4.55;;;2.10;99.90;;;;;;5076226;28;20031;-66
2020/12/31 05:05:24;;;;;;;10.68;5.28;;;2.10;99.90;;;;;;5076755;28;20021;-66
2020/12/31 05:07:51;;;;;;;9.57;4.50;;;2.10;99.90;;;;;;5067328;28;20107;-66
2020/12/31 05:10:18;;;;;;;9.30;4.00;;;2.00;99.90;;;;;;5056554;28;20108;-66
2020/12/31 05:12:46;;;;;;;10.38;4.15;;;2.00;99.90;;;;;;5056082;28;20029;-66
2020/12/31 05:15:14;;;;;;;7.10;3.78;;;2.00;99.90;;;;;;5056517;28;20441;-66
2020/12/31 05:17:41;;;;;;;9.52;4.97;;;2.00;99.90;;;;;;5056355;28;20298;-66
2020/12/31 05:20:18;;;;;;;10.93;4.32;;;2.00;99.90;;;;;;5056981;28;20021;-66
2020/12/31 05:22:46;;;;;;;10.65;4.90;;;2.00;99.90;;;;;;5056970;28;20021;-66
2020/12/31 05:25:14;;;;;;;8.35;4.15;;;2.00;99.90;;;;;;5056380;28;20032;-66
2020/12/31 05:27:42;;;;;;;9.38;4.75;;;2.00;99.90;;;;;;5038710;28;20421;-66
2020/12/31 05:30:10;;;;;;;11.63;4.78;;;2.00;99.90;;;;;;5056753;28;20305;-66
2020/12/31 05:32:39;;;;;;;7.32;4.05;;;2.00;99.90;;;;;;5056424;28;20029;-66
2020/12/31 05:35:16;;;;;;;7.50;4.10;;;2.00;99.90;;;;;;5038849;28;20063;-66
2020/12/31 05:37:44;;;;;;;9.02;4.43;;;2.00;99.90;;;;;;5056847;28;20283;-66
2020/12/31 05:40:14;;;;;;;12.02;4.80;;;2.10;99.90;;;;;;5038482;28;20120;-67
2020/12/31 05:42:43;;;;;;;11.68;5.00;;;2.00;99.90;;;;;;5056566;28;20025;-66
2020/12/31 05:45:10;;;;;;;10.02;5.03;;;2.10;99.90;;;;;;5056181;28;20028;-66
2020/12/31 05:47:52;;;;;;;9.40;4.75;;;2.10;99.90;;;;;;5038472;28;20113;-66
2020/12/31 05:50:27;;;;;;;9.65;4.65;;;2.20;99.90;;;;;;5056943;28;20103;-66
2020/12/31 05:52:56;;;;;;;9.10;4.65;;;2.10;99.90;;;;;;5056749;28;20032;-66
2020/12/31 05:55:25;;;;;;;9.27;5.03;;;2.10;99.90;;;;;;5056106;28;20022;-66
2020/12/31 05:57:54;;;;;;;10.43;4.57;;;2.20;99.90;;;;;;5056115;28;20024;-66
2020/12/31 06:00:25;;;;;;;9.48;5.15;;;2.20;99.90;;;;;;5056122;28;20024;-66
2020/12/31 06:03:00;;;;;;;10.55;5.22;;;2.20;99.90;;;;;;5056669;28;20025;-66
2020/12/31 06:05:31;;;;;;;10.20;4.90;;;2.30;99.90;;;;;;5056287;28;20102;-66
2020/12/31 06:07:59;;;;;;;11.68;5.57;;;2.30;99.90;;;;;;5056313;28;20049;-66
2020/12/31 06:10:29;;;;;;;10.75;4.68;;;2.30;99.90;;;;;;5056659;28;20494;-66
2020/12/31 06:13:02;;;;;;;10.52;5.28;;;2.30;99.90;;;;;;5056468;28;20029;-66
2020/12/31 06:15:33;;;;;;;11.15;4.72;;;2.30;99.90;;;;;;5055936;28;20017;-66
2020/12/31 06:18:03;;;;;;;7.90;4.53;;;2.40;99.90;;;;;;5056213;28;20017;-66
2020/12/31 06:20:33;;;;;;;8.85;4.05;;;2.40;99.90;;;;;;5056351;28;20074;-66
2020/12/31 06:23:11;;;;;;;12.05;5.07;;;2.40;99.90;;;;;;5057640;28;20017;-66
2020/12/31 06:25:41;;;;;;;9.18;5.43;;;2.40;99.90;;;;;;5041932;28;20321;-66
2020/12/31 06:28:14;;;;;;;8.15;4.57;;;2.40;99.90;;;;;;5059981;28;20429;-66
2020/12/31 06:30:50;;;;;;;9.90;4.82;;;2.40;99.90;;;;;;5059495;28;20017;-66
2020/12/31 06:33:32;;;;;;;8.90;4.97;;;2.40;99.90;;;;;;5059367;28;20052;-66
2020/12/31 06:36:05;;;;;;;8.75;4.55;;;2.40;99.90;;;;;;5059647;28;20025;-66
2020/12/31 06:38:33;;;;;;;14.07;5.50;;;2.30;99.90;;;;;;5041619;28;20032;-67
2020/12/31 06:41:02;;;;;;;12.07;5.15;;;2.30;99.90;;;;;;5060290;28;20025;-67
2020/12/31 06:43:39;;;;;;;10.77;4.80;;;2.30;99.90;;;;;;5059795;28;20416;-67
2020/12/31 06:46:20;;;;;;;9.25;4.78;;;2.30;99.90;;;;;;5059188;28;20059;-65
2020/12/31 06:48:53;;;;;;;9.02;5.30;;;2.30;99.90;;;;;;5059034;28;20025;-65
2020/12/31 06:51:26;;;;;;;9.15;4.88;;;2.30;99.90;;;;;;5041587;28;20025;-65
2020/12/31 06:53:54;;;;;;;15.02;5.63;;;2.30;99.90;;;;;;5059058;28;20017;-65
2020/12/31 06:56:44;;;;;;;8.82;4.55;;;2.30;99.90;;;;;;5058966;28;20040;-65
2020/12/31 06:59:29;;;;;;;11.05;4.63;;;2.30;99.90;;;;;;5059249;28;20344;-65
2020/12/31 07:02:01;;;;;;;12.00;5.47;;;2.30;99.90;;;;;;5059053;28;20017;-65
2020/12/31 07:04:30;;;;;;;8.68;4.45;;;2.40;99.90;;;;;;5058875;28;20057;-66
2020/12/31 07:07:00;;;;;;;9.23;4.85;;;2.30;99.90;;;;;;5059086;28;20025;-66
2020/12/31 07:09:37;;;;;;;10.85;5.13;;;2.40;99.90;;;;;;5058658;28;20025;-65
2020/12/31 07:12:06;;;;;;;11.63;5.40;;;2.40;99.90;;;;;;5059007;28;20021;-65
2020/12/31 07:14:38;;;;;;;9.45;4.97;;;2.40;99.90;;;;;;5059207;28;20298;-65
2020/12/31 07:17:09;;;;;;;7.32;4.75;;;2.40;99.90;;;;;;5040824;28;20299;-65
2020/12/31 07:19:44;;;;;;;9.77;4.97;;;2.40;99.90;;;;;;5059159;28;20316;-65
2020/12/31 07:22:12;;;;;;;11.25;5.53;;;2.40;99.90;;;;;;5058602;28;20025;-65
2020/12/31 07:24:53;;;;;;;14.77;6.60;;;2.40;99.90;;;;;;5059032;28;20077;-65
2020/12/31 07:27:28;;;;;;;20.60;8.63;;;2.40;99.90;;;;;;5040734;28;20052;-66
2020/12/31 07:30:00;;;;;;;36.95;13.02;;;2.30;99.90;;;;;;5058892;28;20021;-66
2020/12/31 07:32:50;;;;;;;13.50;6.25;;;2.30;99.90;;;;;;5058308;28;20017;-65
2020/12/31 07:35:35;;;;;;;12.38;5.63;;;2.30;99.90;;;;;;5058083;28;20028;-66
2020/12/31 07:38:06;;;;;;;14.70;7.05;;;2.30;99.90;;;;;;5058812;28;20021;-65
2020/12/31 07:40:49;;;;;;;11.05;5.65;;;2.30;99.90;;;;;;5058517;28;20309;-65
2020/12/31 07:43:20;;;;;;;10.10;5.45;;;2.30;99.90;;;;;;5058197;28;20029;-65
2020/12/31 07:45:57;;;;;;;12.43;6.00;;;2.30;99.90;;;;;;5058664;28;20021;-65
2020/12/31 07:48:26;;;;;;;11.85;5.00;;;2.30;99.90;;;;;;5058272;28;20032;-65
2020/12/31 07:51:05;;;;;;;9.43;5.45;;;2.30;99.90;;;;;;5058080;28;20321;-69
2020/12/31 07:53:35;;;;;;;10.20;5.65;;;2.30;99.90;;;;;;5058501;28;20021;-68
2020/12/31 07:56:06;;;;;;;10.65;5.95;;;2.30;99.90;;;;;;5058028;28;20021;-68
2020/12/31 07:58:35;;;;;;;9.30;5.40;;;2.40;99.90;;;;;;5057819;28;20033;-68
2020/12/31 08:01:08;;;;;;;14.30;6.32;;;2.30;99.90;;;;;;5057683;28;20329;-69
2020/12/31 08:03:36;;;;;;;12.20;6.32;;;2.40;99.90;;;;;;5057797;28;20024;-68
2020/12/31 08:06:04;;;;;;;9.63;5.65;;;2.30;99.90;;;;;;5040162;28;20032;-68
2020/12/31 08:08:34;;;;;;;10.77;6.25;;;2.30;99.90;;;;;;5057621;28;20558;-68
2020/12/31 08:11:11;;;;;;;14.40;7.05;;;2.40;99.90;;;;;;5058160;28;20415;-68
2020/12/31 08:13:40;;;;;;;11.13;6.43;;;2.40;99.90;;;;;;5057504;28;20021;-64
2020/12/31 08:16:08;;;;;;;14.52;7.38;;;2.40;99.90;;;;;;5057627;28;20027;-64
2020/12/31 08:18:36;;;;;;;9.15;5.68;;;2.40;99.90;;;;;;5058006;28;20017;-64
2020/12/31 08:21:07;;;;;;;13.30;6.88;;;2.40;99.90;;;;;;5057946;28;20463;-64
2020/12/31 08:23:45;;;;;;;13.88;7.05;;;2.50;99.90;;;;;;5057410;28;20029;-64
2020/12/31 08:26:18;;;;;;;16.15;8.20;;;2.50;99.90;;;;;;5057255;28;20053;-64
2020/12/31 08:28:48;;;;;;;13.38;6.30;;;2.50;99.90;;;;;;5057217;28;20104;-64
2020/12/31 08:31:24;;;;;;;14.43;6.88;;;2.50;99.90;;;;;;5057408;28;20029;-63
2020/12/31 08:33:58;;;;;;;;;;;2.50;99.90;;;;;;5058079;28;20102;-66
2020/12/31 08:36:27;;;;;;;13.10;7.43;;;2.50;99.90;;;;;;5057191;28;20004;-66
2020/12/31 08:38:58;;;;;;;13.43;7.13;;;2.50;99.90;;;;;;5057417;28;20021;-66
2020/12/31 08:41:26;;;;;;;11.90;6.03;;;2.50;99.90;;;;;;5057077;28;20021;-66
2020/12/31 08:43:57;;;;;;;12.98;7.00;;;2.50;99.90;;;;;;5057603;28;20024;-66
2020/12/31 08:46:24;;;;;;;11.90;5.55;;;2.50;99.90;;;;;;5056628;28;20025;-66
2020/12/31 08:48:58;;;;;;;13.80;6.50;;;2.50;99.90;;;;;;5056726;28;20056;-66
2020/12/31 08:51:32;;;;;;;11.73;6.82;;;2.50;99.90;;;;;;5039414;28;20025;-66
2020/12/31 08:54:00;;;;;;;13.13;6.15;;;2.50;99.90;;;;;;5057404;28;20052;-65
2020/12/31 08:56:35;;;;;;;13.50;7.18;;;2.60;99.90;;;;;;5039116;28;20364;-66
2020/12/31 08:59:10;;;;;;;12.60;6.45;;;2.60;99.90;;;;;;5055711;28;20440;-66
2020/12/31 09:01:39;;;;;;;9.57;5.50;;;2.60;99.90;;;;;;5039703;28;20032;-66
2020/12/31 09:04:18;;;;;;;9.45;5.70;;;2.60;99.90;;;;;;5056647;28;20079;-66
2020/12/31 09:06:57;;;;;;;9.77;6.93;;;2.60;99.90;;;;;;5057273;28;20100;-66
2020/12/31 09:09:28;;;;;;;10.60;5.80;;;2.60;99.90;;;;;;5056552;28;20041;-68
2020/12/31 09:12:09;;;;;;;11.68;6.65;;;2.60;99.90;;;;;;5057323;28;20025;-66
2020/12/31 09:15:04;;;;;;;11.18;5.43;;;2.60;99.90;;;;;;5056458;28;20021;-66
2020/12/31 09:17:34;;;;;;;12.65;7.43;;;2.70;99.90;;;;;;5056386;28;20021;-66
2020/12/31 09:20:02;;;;;;;12.48;6.80;;;2.70;99.90;;;;;;5039020;28;20043;-67
2020/12/31 09:22:29;;;;;;;21.33;9.52;;;2.70;99.90;;;;;;5057018;28;20108;-66
2020/12/31 09:24:57;;;;;;;15.48;8.65;;;2.70;99.90;;;;;;5056996;28;20021;-66
2020/12/31 09:27:27;;;;;;;12.98;7.70;;;2.70;99.90;;;;;;5056604;28;20068;-67
2020/12/31 09:30:01;;;;;;;11.95;7.05;;;2.70;99.90;;;;;;5056443;28;20025;-66
2020/12/31 09:32:30;;;;;;;10.88;6.38;;;2.80;99.90;;;;;;5038440;28;20021;-66
2020/12/31 09:34:59;;;;;;;10.23;5.95;;;2.80;99.90;;;;;;5038676;28;20021;-66
2020/12/31 09:37:26;;;;;;;14.25;6.05;;;2.80;99.90;;;;;;5038583;28;20181;-66
2020/12/31 09:39:53;;;;;;;14.73;7.18;;;2.80;99.90;;;;;;5056252;28;20025;-66
2020/12/31 09:42:21;;;;;;;12.18;5.45;;;2.80;99.90;;;;;;5056884;28;20407;-66
2020/12/31 09:44:49;;;;;;;11.55;6.75;;;2.80;99.90;;;;;;5056281;28;20025;-67
2020/12/31 09:47:16;;;;;;;17.00;8.85;;;2.90;99.90;;;;;;5056196;28;20075;-66
2020/12/31 09:49:43;;;;;;;13.38;7.60;;;2.90;99.90;;;;;;5038411;28;20321;-67
2020/12/31 09:52:11;;;;;;;15.80;7.55;;;2.90;99.90;;;;;;5056781;28;20021;-67
2020/12/31 09:54:38;;;;;;;11.23;6.13;;;2.90;99.90;;;;;;5056655;28;20074;-67
2020/12/31 09:57:06;;;;;;;11.77;6.60;;;2.90;99.90;;;;;;5056983;28;20118;-67
2020/12/31 09:59:33;;;;;;;10.75;5.43;;;3.00;99.90;;;;;;5060047;28;20306;-67
2020/12/31 10:02:01;;;;;;;10.63;5.82;;;3.00;99.90;;;;;;5060268;28;20017;-67
2020/12/31 10:04:30;;;;;;;16.33;6.65;;;3.00;99.90;;;;;;5059951;28;20057;-67
2020/12/31 10:06:58;;;;;;;8.88;5.45;;;3.10;99.90;;;;;;5042389;28;20037;-67
2020/12/31 10:09:26;;;;;;;12.77;5.38;;;3.10;99.90;;;;;;5059841;28;20059;-67
2020/12/31 10:11:54;;;;;;;13.32;6.22;;;3.20;99.90;;;;;;5059962;28;20017;-67
2020/12/31 10:14:22;;;;;;;9.57;4.97;;;3.20;99.90;;;;;;5059804;28;20021;-67
2020/12/31 10:16:51;;;;;;;9.35;5.55;;;3.20;99.90;;;;;;5060533;28;20052;-67
2020/12/31 10:19:18;;;;;;;21.77;7.07;;;3.30;99.90;;;;;;5059714;28;20032;-67
2020/12/31 10:21:47;;;;;;;10.55;5.47;;;3.30;99.90;;;;;;5059713;28;20078;-67
2020/12/31 10:24:15;;;;;;;11.35;5.40;;;3.30;99.90;;;;;;5059695;28;20079;-67
2020/12/31 10:26:44;;;;;;;8.27;4.80;;;3.30;99.90;;;;;;5059868;28;20028;-67
2020/12/31 10:29:16;;;;;;;10.20;5.07;;;3.30;99.90;;;;;;5059410;28;20306;-67
2020/12/31 10:31:56;;;;;;;11.40;4.68;;;3.40;99.90;;;;;;5059668;28;20017;-67
2020/12/31 10:34:25;;;;;;;11.77;5.43;;;3.40;99.90;;;;;;5041772;28;20059;-67
2020/12/31 10:36:58;;;;;;;7.78;4.43;;;3.40;99.90;;;;;;5059392;28;20017;-67
2020/12/31 10:39:25;;;;;;;9.27;4.80;;;3.30;99.90;;;;;;5059465;28;20020;-67
2020/12/31 10:42:46;;;;;;;7.85;4.38;;;3.30;99.90;;;;;;5059990;28;20052;-67
2020/12/31 10:45:15;;;;;;;7.20;4.80;;;3.30;99.90;;;;;;5060013;28;20028;-67
2020/12/31 10:47:42;;;;;;;10.45;5.55;;;3.30;99.90;;;;;;5059732;28;20021;-67
2020/12/31 10:50:10;;;;;;;6.85;3.33;;;3.30;99.90;;;;;;5059691;28;20044;-67
2020/12/31 10:52:38;;;;;;;8.20;4.63;;;3.30;99.90;;;;;;5059751;28;20023;-67
2020/12/31 10:55:06;;;;;;;7.07;3.72;;;3.30;99.90;;;;;;5041690;28;20325;-67
2020/12/31 10:57:34;;;;;;;8.80;3.90;;;3.30;99.90;;;;;;5059621;28;20028;-67
2020/12/31 11:00:02;;;;;;;7.22;3.75;;;3.30;99.90;;;;;;5059357;28;20025;-67
2020/12/31 11:02:30;;;;;;;7.88;4.15;;;3.40;99.90;;;;;;5058826;28;20025;-67
2020/12/31 11:04:58;;;;;;;6.63;4.00;;;3.40;99.90;;;;;;5059588;28;20329;-66
2020/12/31 11:07:26;;;;;;;7.32;4.07;;;3.40;99.90;;;;;;5059286;28;20049;-67
2020/12/31 11:09:53;;;;;;;8.10;3.75;;;3.40;99.90;;;;;;5058245;28;20029;-67
2020/12/31 11:12:21;;;;;;;7.75;3.72;;;3.50;99.90;;;;;;5041046;28;20028;-68
2020/12/31 11:14:50;;;;;;;7.60;4.47;;;3.50;99.90;;;;;;5058595;28;20017;-66
2020/12/31 11:17:17;;;;;;;6.15;3.80;;;3.50;99.90;;;;;;5058771;28;20029;-72
2020/12/31 11:19:45;;;;;;;8.30;3.45;;;3.60;99.90;;;;;;5058914;28;20029;-72
2020/12/31 11:22:12;;;;;;;6.78;4.30;;;3.60;99.90;;;;;;5040927;28;20060;-67
2020/12/31 11:24:39;;;;;;;6.57;3.58;;;3.70;99.90;;;;;;5059100;28;20048;-67
2020/12/31 11:27:07;;;;;;;6.40;3.38;;;3.70;99.90;;;;;;5059280;28;20359;-67
2020/12/31 11:29:35;;;;;;;5.72;3.08;;;3.70;99.90;;;;;;5058379;28;20025;-67
2020/12/31 11:32:03;;;;;;;6.82;3.17;;;3.80;99.90;;;;;;5058398;28;20024;-67
2020/12/31 11:34:31;;;;;;;7.05;3.25;;;3.80;99.90;;;;;;5058376;28;20021;-67
2020/12/31 11:37:01;;;;;;;6.53;3.42;;;3.80;99.90;;;;;;5058785;28;20059;-66
2020/12/31 11:39:29;;;;;;;4.68;2.80;;;3.90;99.90;;;;;;5058289;28;20036;-65
2020/12/31 11:42:00;;;;;;;5.72;3.03;;;3.90;99.90;;;;;;5058799;28;20107;-66
2020/12/31 11:44:27;;;;;;;6.47;2.38;;;4.00;99.90;;;;;;5058213;28;20033;-65
2020/12/31 11:47:00;;;;;;;4.20;1.92;;;4.00;99.90;;;;;;5058062;28;20409;-66
2020/12/31 11:49:27;;;;;;;4.32;2.40;;;4.00;99.90;;;;;;5057912;28;20057;-66
2020/12/31 11:52:01;;;;;;;5.22;2.53;;;4.00;99.90;;;;;;5058600;28;20022;-71
2020/12/31 11:54:28;;;;;;;5.78;2.22;;;4.00;99.90;;;;;;5058515;28;20028;-66
2020/12/31 11:56:55;;;;;;;4.53;1.90;;;4.00;99.90;;;;;;5040283;28;20108;-66
2020/12/31 11:59:23;;;;;;;3.42;2.00;;;4.10;99.90;;;;;;5057776;28;20079;-68
2020/12/31 12:01:51;;;;;;;4.10;2.28;;;4.10;99.90;;;;;;5057738;28;20071;-66
2020/12/31 12:04:20;;;;;;;4.43;1.88;;;4.10;99.90;;;;;;5057785;28;20420;-70
2020/12/31 12:06:54;;;;;;;4.95;2.00;;;4.10;99.90;;;;;;5057689;28;20475;-67
2020/12/31 12:09:25;;;;;;;5.18;2.72;;;4.10;99.90;;;;;;5077608;28;20032;-66
2020/12/31 12:11:52;;;;;;;5.55;2.28;;;4.10;99.90;;;;;;5059862;28;20082;-67
2020/12/31 12:14:21;;;;;;;4.38;2.67;;;4.10;99.90;;;;;;5077733;28;20047;-67
2020/12/31 12:16:51;;;;;;;7.50;4.13;;;4.10;99.90;;;;;;5077732;28;20052;-67
2020/12/31 12:19:20;;;;;;;6.68;3.45;;;4.20;99.90;;;;;;5060500;28;20045;-66
2020/12/31 12:21:47;;;;;;;4.68;2.30;;;4.20;99.90;;;;;;5059527;28;20112;-67
2020/12/31 12:24:15;;;;;;;5.45;2.40;;;4.20;99.90;;;;;;5077625;28;20320;-67
2020/12/31 12:26:43;;;;;;;5.43;3.25;;;4.20;99.90;;;;;;5059649;28;20024;-66
2020/12/31 12:29:10;;;;;;;4.40;2.47;;;4.30;99.90;;;;;;5059507;28;20027;-67
2020/12/31 12:31:38;;;;;;;4.05;2.20;;;4.30;99.90;;;;;;5077218;28;20405;-67
2020/12/31 12:34:07;;;;;;;3.90;2.22;;;4.30;99.90;;;;;;5077416;28;20417;-67
2020/12/31 12:36:35;;;;;;;4.75;2.40;;;4.30;99.90;;;;;;5077747;28;20028;-67
2020/12/31 12:39:07;;;;;;;4.03;2.33;;;4.30;99.90;;;;;;5077197;28;20025;-66
2020/12/31 12:41:34;;;;;;;4.72;2.40;;;4.30;99.90;;;;;;5077054;28;20021;-67
2020/12/31 12:44:02;;;;;;;4.15;2.22;;;4.30;99.90;;;;;;5060159;28;20016;-67
2020/12/31 12:46:29;;;;;;;4.70;2.65;;;4.30;99.90;;;;;;5077391;28;20103;-67
2020/12/31 12:48:57;;;;;;;3.63;2.22;;;4.30;99.90;;;;;;5076854;28;20028;-67
2020/12/31 12:51:31;;;;;;;3.97;2.20;;;4.30;99.90;;;;;;5059140;28;20070;-66
2020/12/31 12:53:59;;;;;;;5.30;2.25;;;4.30;99.90;;;;;;5059269;28;20074;-66
2020/12/31 12:56:26;;;;;;;3.85;2.05;;;4.30;99.90;;;;;;5076773;28;20027;-67
2020/12/31 12:58:54;;;;;;;3.70;2.33;;;4.20;99.90;;;;;;5076763;28;20024;-67
2020/12/31 13:01:22;;;;;;;4.93;2.75;;;4.30;99.90;;;;;;5076676;28;20020;-66
2020/12/31 13:03:49;;;;;;;3.75;2.40;;;4.20;99.90;;;;;;5076905;28;20050;-67
2020/12/31 13:06:17;;;;;;;4.43;2.58;;;4.20;99.90;;;;;;5058993;28;20642;-66